Time;durP1;ratioP1;P1;durP2;ratioP2;P2;SDS_P1;SDS_P2;PMS_P1;PMS_P2;Temp;Humidity;BMP_temperature;BMP_pressure;BME280_temperature;BME280_humidity;BME280_pressure;Samples;Min_cycle;Max_cycle;Signal;HPM_P1;HPM_P2
2024/03/16 00:00:34;;;;;;;37.70;24.90;;;;;;;5.57;100.00;100597.91;106111;1251;60456;-56
2024/03/16 00:03:01;;;;;;;35.40;24.90;;;;;;;5.56;100.00;100595.24;106195;1251;61428;-58
2024/03/16 00:05:28;;;;;;;40.30;26.10;;;;;;;5.55;100.00;100595.27;106111;1256;72595;-57
2024/03/16 00:07:55;;;;;;;43.00;26.60;;;;;;;5.55;100.00;100596.86;106118;1257;67215;-58
2024/03/16 00:10:23;;;;;;;39.20;25.50;;;;;;;5.54;100.00;100600.08;106105;1274;73176;-59
2024/03/16 00:12:50;;;;;;;41.30;25.30;;;;;;;5.53;100.00;100596.17;106034;1251;63593;-59
2024/03/16 00:15:17;;;;;;;39.30;24.10;;;;;;;5.53;100.00;100600.64;106234;1254;60368;-58
2024/03/16 00:17:44;;;;;;;38.50;22.60;;;;;;;5.52;100.00;100599.95;106024;1253;72631;-58
2024/03/16 00:20:12;;;;;;;35.50;22.70;;;;;;;5.52;100.00;100605.12;106057;1257;66927;-57
2024/03/16 00:22:39;;;;;;;39.90;22.80;;;;;;;5.52;100.00;100600.66;106650;1251;72906;-58
2024/03/16 00:25:06;;;;;;;40.30;22.00;;;;;;;5.52;100.00;100601.20;106077;1268;61740;-58
2024/03/16 00:27:34;;;;;;;38.80;22.70;;;;;;;5.53;100.00;100597.63;106021;1261;60413;-57
2024/03/16 00:30:01;;;;;;;38.10;21.80;;;;;;;5.51;100.00;100599.24;106067;1265;72665;-58
2024/03/16 00:32:28;;;;;;;44.10;22.40;;;;;;;5.52;100.00;100596.39;106231;1257;66094;-58
2024/03/16 00:34:56;;;;;;;36.40;20.70;;;;;;;5.52;100.00;100597.10;106105;1256;72767;-58
2024/03/16 00:37:23;;;;;;;34.10;21.50;;;;;;;5.53;100.00;100596.20;106091;1255;61310;-58
2024/03/16 00:39:50;;;;;;;40.30;22.80;;;;;;;5.53;100.00;100592.99;106187;1251;60637;-59
2024/03/16 00:42:19;;;;;;;44.70;24.10;;;;;;;5.52;100.00;100594.96;106352;1251;72956;-58
2024/03/16 00:44:46;;;;;;;37.80;22.30;;;;;;;5.51;100.00;100591.42;106130;1251;67135;-58
2024/03/16 00:47:13;;;;;;;43.10;24.70;;;;;;;5.50;100.00;100590.73;106119;1251;72486;-57
2024/03/16 00:49:40;;;;;;;44.70;24.10;;;;;;;5.47;100.00;100595.02;106045;1257;60871;-58
2024/03/16 00:52:08;;;;;;;41.70;22.40;;;;;;;5.44;100.00;100593.83;106103;1269;60524;-58
2024/03/16 00:54:35;;;;;;;39.70;21.20;;;;;;;5.42;100.00;100592.08;109075;1251;73790;-58
2024/03/16 00:57:02;;;;;;;41.50;22.80;;;;;;;5.40;100.00;100594.95;109292;1253;66890;-58
2024/03/16 00:59:29;;;;;;;34.20;20.70;;;;;;;5.39;100.00;100592.29;109169;1253;71507;-58
2024/03/16 01:01:57;;;;;;;43.30;22.90;;;;;;;5.38;100.00;100590.17;109191;1256;61751;-58
2024/03/16 01:04:26;;;;;;;40.00;22.00;;;;;;;5.38;100.00;100588.73;106634;1255;61339;-57
2024/03/16 01:06:53;;;;;;;37.00;21.50;;;;;;;5.39;100.00;100586.05;109218;1251;74571;-57
2024/03/16 01:09:20;;;;;;;34.50;20.40;;;;;;;5.39;100.00;100589.79;109215;1252;65619;-58
2024/03/16 01:11:47;;;;;;;38.50;22.40;;;;;;;5.40;100.00;100594.23;109177;1254;73264;-58
2024/03/16 01:14:14;;;;;;;31.90;19.90;;;;;;;5.42;100.00;100590.48;109266;1253;61846;-57
2024/03/16 01:16:41;;;;;;;34.50;19.40;;;;;;;5.43;100.00;100592.06;109218;1251;60121;-58
2024/03/16 01:19:09;;;;;;;32.00;19.10;;;;;;;5.43;100.00;100592.77;109343;1251;73665;-57
2024/03/16 01:21:36;;;;;;;35.80;20.30;;;;;;;5.44;100.00;100591.52;107483;1256;67063;-57
2024/03/16 01:24:05;;;;;;;42.50;22.00;;;;;;;5.44;100.00;100592.59;109098;1253;72635;-58
2024/03/16 01:26:33;;;;;;;41.20;22.00;;;;;;;5.42;100.00;100590.30;109192;1252;58963;-58
2024/03/16 01:29:02;;;;;;;36.30;21.20;;;;;;;5.40;100.00;100590.31;106955;1256;61321;-57
2024/03/16 01:31:30;;;;;;;35.90;21.00;;;;;;;5.39;100.00;100591.57;106571;1256;74708;-58
2024/03/16 01:33:57;;;;;;;36.00;20.40;;;;;;;5.38;100.00;100590.88;106146;1270;65659;-57
2024/03/16 01:36:24;;;;;;;34.70;20.10;;;;;;;5.37;100.00;100590.00;106236;1251;74936;-58
2024/03/16 01:38:51;;;;;;;31.10;19.30;;;;;;;5.37;100.00;100588.56;106316;1256;62127;-58
2024/03/16 01:41:22;;;;;;;33.20;20.60;;;;;;;5.36;100.00;100589.48;106135;1256;61291;-58
2024/03/16 01:43:49;;;;;;;36.10;19.20;;;;;;;5.37;100.00;100592.14;106624;1251;74682;-58
2024/03/16 01:46:17;;;;;;;37.10;19.90;;;;;;;5.37;100.00;100596.41;106112;1256;67313;-57
2024/03/16 01:48:45;;;;;;;33.50;19.10;;;;;;;5.37;100.00;100592.85;106122;1257;71161;-57
2024/03/16 01:51:13;;;;;;;34.80;18.90;;;;;;;5.36;100.00;100594.66;106130;1253;62337;-57
2024/03/16 01:53:40;;;;;;;31.80;17.70;;;;;;;5.36;100.00;100596.96;106133;1254;62387;-57
2024/03/16 01:56:07;;;;;;;31.40;18.70;;;;;;;5.37;100.00;100599.98;106142;1253;74040;-58
2024/03/16 01:58:37;;;;;;;34.40;19.30;;;;;;;5.36;100.00;100598.04;106028;1258;66945;-58
2024/03/16 02:01:04;;;;;;;35.10;19.00;;;;;;;5.35;100.00;100597.16;106005;1258;72764;-57
2024/03/16 02:03:31;;;;;;;32.40;18.60;;;;;;;5.35;100.00;100601.08;106162;1254;61401;-57
2024/03/16 02:05:59;;;;;;;39.30;22.80;;;;;;;5.34;100.00;100599.67;106010;1252;61270;-55
2024/03/16 02:08:27;;;;;;;35.00;20.10;;;;;;;5.32;100.00;100602.36;106100;1253;73418;-56
2024/03/16 02:10:54;;;;;;;31.20;17.30;;;;;;;5.30;100.00;100600.23;106040;1253;66007;-56
2024/03/16 02:13:21;;;;;;;30.40;16.20;;;;;;;5.29;100.00;100603.81;106090;1253;71439;-58
2024/03/16 02:15:48;;;;;;;30.50;17.70;;;;;;;5.29;100.00;100601.48;106120;1257;61677;-57
2024/03/16 02:18:16;;;;;;;27.90;17.10;;;;;;;5.31;100.00;100601.48;107262;1257;61360;-57
2024/03/16 02:20:43;;;;;;;27.70;17.20;;;;;;;5.32;100.00;100605.37;106985;1256;72873;-57
2024/03/16 02:23:10;;;;;;;28.60;17.40;;;;;;;5.36;100.00;100606.40;106139;1253;66966;-57
2024/03/16 02:25:37;;;;;;;25.10;16.00;;;;;;;5.39;100.00;100606.53;106942;1258;73169;-56
2024/03/16 02:28:04;;;;;;;26.00;16.60;;;;;;;5.41;100.00;100607.58;106010;1253;62014;-58
2024/03/16 02:30:32;;;;;;;32.30;18.20;;;;;;;5.43;100.00;100608.63;106074;1263;61202;-57
2024/03/16 02:32:59;;;;;;;30.40;18.40;;;;;;;5.44;100.00;100607.38;106471;1253;74638;-56
2024/03/16 02:35:26;;;;;;;25.10;16.30;;;;;;;5.44;100.00;100612.88;106077;1258;67514;-56
2024/03/16 02:37:53;;;;;;;31.70;18.60;;;;;;;5.44;100.00;100611.64;106259;1253;72778;-56
2024/03/16 02:40:21;;;;;;;34.80;20.10;;;;;;;5.42;100.00;100610.59;106078;1253;61581;-56
2024/03/16 02:42:48;;;;;;;34.50;18.50;;;;;;;5.41;100.00;100612.73;106097;1253;61282;-56
2024/03/16 02:45:16;;;;;;;27.90;17.00;;;;;;;5.40;100.00;100613.46;106145;1257;73375;-55
2024/03/16 02:47:43;;;;;;;28.50;17.50;;;;;;;5.40;100.00;100617.55;106204;1256;65449;-56
2024/03/16 02:50:11;;;;;;;27.90;18.00;;;;;;;5.40;100.00;100618.98;106072;1253;72737;-57
2024/03/16 02:52:38;;;;;;;26.00;16.50;;;;;;;5.39;100.00;100619.88;106076;1254;62206;-56
2024/03/16 02:55:05;;;;;;;28.70;17.10;;;;;;;5.38;100.00;100617.74;106156;1253;62146;-57
2024/03/16 02:57:33;;;;;;;27.80;16.30;;;;;;;5.39;100.00;100620.06;106390;1254;73457;-57
2024/03/16 03:00:04;;;;;;;30.10;16.00;;;;;;;5.39;100.00;100618.27;106053;1253;67385;-57
2024/03/16 03:02:31;;;;;;;30.00;18.60;;;;;;;5.40;100.00;100616.48;106673;1253;72773;-57
2024/03/16 03:04:58;;;;;;;30.80;18.50;;;;;;;5.41;100.00;100612.56;106132;1257;61837;-57
2024/03/16 03:07:26;;;;;;;32.80;19.20;;;;;;;5.41;100.00;100613.09;106111;1257;61618;-57
2024/03/16 03:09:53;;;;;;;31.10;18.60;;;;;;;5.40;100.00;100615.60;106172;1256;74717;-55
2024/03/16 03:12:20;;;;;;;37.10;20.20;;;;;;;5.38;100.00;100614.37;106607;1256;65961;-57
2024/03/16 03:14:47;;;;;;;33.80;19.20;;;;;;;5.37;100.00;100614.02;106315;1253;73079;-55
2024/03/16 03:17:14;;;;;;;30.00;18.80;;;;;;;5.37;100.00;100612.96;106084;1256;60201;-56
2024/03/16 03:19:42;;;;;;;34.70;18.00;;;;;;;5.35;100.00;100612.99;106090;1257;61362;-58
2024/03/16 03:22:10;;;;;;;26.50;16.60;;;;;;;5.33;100.00;100616.23;106052;1252;73468;-56
2024/03/16 03:24:37;;;;;;;28.10;17.00;;;;;;;5.32;100.00;100617.84;106196;1254;65852;-56
2024/03/16 03:27:04;;;;;;;28.50;17.10;;;;;;;5.32;100.00;100619.79;106054;1253;74761;-58
2024/03/16 03:29:32;;;;;;;28.90;16.90;;;;;;;5.34;100.00;100615.15;106081;1260;63822;-55
2024/03/16 03:31:59;;;;;;;28.50;16.30;;;;;;;5.37;100.00;100620.42;106062;1257;61340;-57
2024/03/16 03:34:26;;;;;;;27.00;17.50;;;;;;;5.40;100.00;100618.45;106065;1255;75279;-58
2024/03/16 03:36:53;;;;;;;27.90;18.60;;;;;;;5.42;100.00;100620.39;106128;1256;67186;-56
2024/03/16 03:39:24;;;;;;;32.70;19.30;;;;;;;5.42;100.00;100625.89;106244;1253;71500;-55
2024/03/16 03:41:52;;;;;;;34.00;18.10;;;;;;;5.41;100.00;100626.09;107156;1254;61483;-57
2024/03/16 03:44:24;;;;;;;34.30;19.10;;;;;;;5.38;100.00;100628.25;106322;1257;62000;-58
2024/03/16 03:46:54;;;;;;;33.40;20.70;;;;;;;5.35;100.00;100630.08;109175;1251;75712;-57
2024/03/16 03:49:35;;;;;;;27.40;17.60;;;;;;;5.32;100.00;100634.20;109158;1251;65761;-57
2024/03/16 03:52:02;;;;;;;29.20;17.20;;;;;;;5.29;100.00;100632.98;109091;1252;73183;-58
2024/03/16 03:54:33;;;;;;;28.50;18.40;;;;;;;5.29;100.00;100633.17;109099;1253;61671;-58
2024/03/16 03:57:00;;;;;;;35.30;20.30;;;;;;;5.30;100.00;100631.92;107565;1256;61296;-56
2024/03/16 03:59:28;;;;;;;28.70;18.00;;;;;;;5.32;100.00;100627.98;106242;1253;73451;-56
2024/03/16 04:01:55;;;;;;;28.50;17.10;;;;;;;5.33;100.00;100634.38;106139;1259;65383;-57
2024/03/16 04:04:22;;;;;;;30.60;18.00;;;;;;;5.35;100.00;100631.52;109229;1251;72580;-57
2024/03/16 04:06:49;;;;;;;27.60;17.30;;;;;;;5.37;100.00;100632.19;109081;1253;60456;-57
2024/03/16 04:09:17;;;;;;;31.10;17.70;;;;;;;5.37;100.00;100629.86;109121;1252;59062;-57
2024/03/16 04:11:44;;;;;;;26.80;17.10;;;;;;;5.37;100.00;100632.36;109211;1253;75555;-57
2024/03/16 04:14:11;;;;;;;29.20;18.60;;;;;;;5.38;100.00;100633.59;106720;1256;65782;-57
2024/03/16 04:16:38;;;;;;;28.50;17.30;;;;;;;5.39;100.00;100636.08;106256;1269;73153;-57
2024/03/16 04:19:06;;;;;;;28.20;18.00;;;;;;;5.37;100.00;100636.63;109168;1252;59254;-58
2024/03/16 04:21:33;;;;;;;30.20;17.70;;;;;;;5.36;100.00;100636.66;109056;1252;60873;-57
2024/03/16 04:24:01;;;;;;;28.70;16.80;;;;;;;5.34;100.00;100639.17;109154;1253;75682;-58
2024/03/16 04:26:28;;;;;;;27.70;17.10;;;;;;;5.33;100.00;100645.77;109229;1251;65496;-57
2024/03/16 04:28:55;;;;;;;22.40;14.70;;;;;;;5.31;100.00;100646.14;106429;1256;73107;-59
2024/03/16 04:31:22;;;;;;;23.00;14.90;;;;;;;5.29;100.00;100642.78;106115;1262;61304;-59
2024/03/16 04:33:51;;;;;;;20.80;14.00;;;;;;;5.28;100.00;100643.50;106050;1259;61366;-57
2024/03/16 04:36:18;;;;;;;24.60;13.40;;;;;;;5.27;100.00;100644.77;106316;1256;73410;-58
2024/03/16 04:38:46;;;;;;;19.30;13.10;;;;;;;5.27;100.00;100646.03;106210;1264;65908;-58
2024/03/16 04:41:13;;;;;;;23.50;14.90;;;;;;;5.27;100.00;100648.88;106053;1260;72788;-58
2024/03/16 04:43:41;;;;;;;22.90;15.40;;;;;;;5.27;100.00;100648.33;106120;1262;61328;-58
2024/03/16 04:46:08;;;;;;;21.80;13.40;;;;;;;5.29;100.00;100651.15;106920;1253;61261;-58
2024/03/16 04:48:36;;;;;;;21.30;14.10;;;;;;;5.29;100.00;100652.39;106239;1256;74676;-57
2024/03/16 04:51:03;;;;;;;21.00;13.60;;;;;;;5.30;100.00;100649.17;106191;1251;66918;-58
2024/03/16 04:53:30;;;;;;;21.90;15.10;;;;;;;5.30;100.00;100651.49;106173;1256;72442;-57
2024/03/16 04:55:58;;;;;;;21.10;14.50;;;;;;;5.29;100.00;100650.26;106079;1263;61307;-59
2024/03/16 04:58:26;;;;;;;24.10;15.20;;;;;;;5.30;100.00;100649.89;106146;1256;61266;-57
2024/03/16 05:00:53;;;;;;;26.20;15.80;;;;;;;5.29;100.00;100651.14;106113;1256;72424;-57
2024/03/16 05:03:20;;;;;;;16.90;12.40;;;;;;;5.29;100.00;100653.46;106138;1256;65884;-57
2024/03/16 05:05:50;;;;;;;17.80;12.70;;;;;;;5.28;100.00;100652.77;106632;1252;71941;-58
2024/03/16 05:08:17;;;;;;;12.90;9.60;;;;;;;5.26;100.00;100656.90;106120;1251;61256;-58
2024/03/16 05:10:50;;;;;;;9.80;8.10;;;;;;;5.25;100.00;100655.48;106099;1256;61260;-57
2024/03/16 05:13:17;;;;;;;12.20;8.00;;;;;;;5.24;100.00;100655.67;106474;1256;75046;-57
2024/03/16 05:15:44;;;;;;;10.00;8.20;;;;;;;5.23;100.00;100653.89;107566;1254;67152;-59
2024/03/16 05:18:14;;;;;;;10.20;7.80;;;;;;;5.22;100.00;100653.20;106293;1257;72881;-58
2024/03/16 05:20:41;;;;;;;6.60;6.00;;;;;;;5.23;100.00;100652.13;106093;1256;61309;-58
2024/03/16 05:23:09;;;;;;;9.70;7.70;;;;;;;5.24;100.00;100653.71;106049;1254;61103;-59
2024/03/16 05:25:37;;;;;;;9.10;7.50;;;;;;;5.25;100.00;100657.63;105990;1259;73428;-58
2024/03/16 05:28:04;;;;;;;9.50;7.60;;;;;;;5.26;100.00;100658.84;106279;1256;65666;-58
2024/03/16 05:30:31;;;;;;;7.70;6.90;;;;;;;5.27;100.00;100663.11;106092;1254;72671;-58
2024/03/16 05:32:59;;;;;;;7.30;6.60;;;;;;;5.28;100.00;100662.90;106111;1257;61349;-57
2024/03/16 05:35:28;;;;;;;7.80;7.10;;;;;;;5.29;100.00;100662.17;106158;1256;60010;-58
2024/03/16 05:37:56;;;;;;;10.10;8.70;;;;;;;5.30;100.00;100660.57;106603;1265;74641;-58
2024/03/16 05:40:23;;;;;;;9.50;8.60;;;;;;;5.30;100.00;100661.64;107511;1254;65762;-58
2024/03/16 05:42:50;;;;;;;9.40;8.50;;;;;;;5.28;100.00;100661.83;106049;1254;71475;-58
2024/03/16 05:45:17;;;;;;;10.90;9.20;;;;;;;5.27;100.00;100661.84;106219;1256;62599;-58
2024/03/16 05:47:45;;;;;;;9.20;8.30;;;;;;;5.27;100.00;100663.29;106381;1256;61209;-57
2024/03/16 05:50:13;;;;;;;10.30;8.90;;;;;;;5.27;100.00;100660.81;106704;1256;72705;-58
2024/03/16 05:52:40;;;;;;;8.60;7.70;;;;;;;5.28;100.00;100660.77;106184;1254;65712;-60
2024/03/16 05:55:07;;;;;;;11.90;8.80;;;;;;;5.29;100.00;100661.64;106148;1257;72799;-58
2024/03/16 05:57:35;;;;;;;10.50;9.20;;;;;;;5.30;100.00;100664.48;106059;1256;61300;-59
2024/03/16 06:00:13;;;;;;;12.00;9.40;;;;;;;5.32;100.00;100665.17;106215;1256;62748;-58
2024/03/16 06:02:40;;;;;;;10.80;8.10;;;;;;;5.36;100.00;100667.10;106239;1257;74654;-57
2024/03/16 06:05:07;;;;;;;11.30;9.40;;;;;;;5.38;100.00;100671.50;106139;1256;67116;-58
2024/03/16 06:07:34;;;;;;;12.30;9.50;;;;;;;5.40;100.00;100672.39;106103;1256;72515;-57
2024/03/16 06:10:02;;;;;;;12.60;10.40;;;;;;;5.42;100.00;100668.62;106154;1256;61214;-57
2024/03/16 06:12:30;;;;;;;16.90;12.40;;;;;;;5.44;100.00;100672.33;106401;1256;61227;-58
2024/03/16 06:14:58;;;;;;;17.10;12.00;;;;;;;5.46;100.00;100672.29;106702;1254;73441;-58
2024/03/16 06:17:25;;;;;;;17.10;11.20;;;;;;;5.47;100.00;100674.59;106943;1254;67174;-59
2024/03/16 06:19:54;;;;;;;13.90;9.40;;;;;;;5.48;100.00;100673.52;106133;1270;72826;-58
2024/03/16 06:22:21;;;;;;;14.40;9.60;;;;;;;5.49;100.00;100676.52;106274;1254;62208;-57
2024/03/16 06:24:49;;;;;;;14.90;10.30;;;;;;;5.51;100.00;100677.40;106338;1259;62035;-59
2024/03/16 06:27:21;;;;;;;14.10;9.00;;;;;;;5.53;100.00;100675.58;106164;1269;73484;-58
2024/03/16 06:29:55;;;;;;;15.80;9.60;;;;;;;5.55;100.00;100679.47;106359;1256;65801;-58
2024/03/16 06:32:22;;;;;;;13.00;9.10;;;;;;;5.57;100.00;100680.70;106404;1254;72761;-57
2024/03/16 06:34:50;;;;;;;17.60;10.90;;;;;;;5.59;100.00;100681.04;106097;1254;62306;-59
2024/03/16 06:37:17;;;;;;;15.40;11.00;;;;;;;5.63;100.00;100682.57;108009;1253;61461;-57
2024/03/16 06:39:47;;;;;;;15.90;10.40;;;;;;;5.67;100.00;100680.58;106228;1256;73791;-59
2024/03/16 06:42:15;;;;;;;14.60;10.80;;;;;;;5.69;100.00;100680.35;106869;1256;65929;-59
2024/03/16 06:44:43;;;;;;;16.90;12.30;;;;;;;5.73;100.00;100680.30;106066;1257;72348;-58
2024/03/16 06:47:10;;;;;;;14.90;11.50;;;;;;;5.76;100.00;100679.02;106191;1256;61253;-59
2024/03/16 06:49:37;;;;;;;17.20;12.70;;;;;;;5.79;100.00;100682.38;106193;1254;61227;-59
2024/03/16 06:52:05;;;;;;;16.90;11.60;;;;;;;5.81;100.00;100681.08;106103;1270;74728;-58
2024/03/16 06:54:32;;;;;;;17.50;11.80;;;;;;;5.83;100.00;100685.86;109165;1253;70302;-58
2024/03/16 06:57:00;;;;;;;16.80;11.20;;;;;;;5.87;100.00;100688.32;109276;1253;73152;-57
2024/03/16 06:59:27;;;;;;;15.80;12.30;;;;;;;5.92;100.00;100693.60;107059;1256;61303;-58
2024/03/16 07:01:54;;;;;;;16.10;11.50;;;;;;;5.99;100.00;100698.67;106065;1257;61244;-57
2024/03/16 07:04:22;;;;;;;17.40;11.70;;;;;;;6.04;100.00;100696.63;109169;1256;74694;-57
2024/03/16 07:06:49;;;;;;;15.60;11.50;;;;;;;6.09;100.00;100699.59;109165;1253;67559;-57
2024/03/16 07:09:18;;;;;;;14.00;10.90;;;;;;;6.14;100.00;100698.80;107589;1256;72135;-58
2024/03/16 07:11:46;;;;;;;13.60;11.30;;;;;;;6.19;100.00;100699.09;109050;1253;60276;-58
2024/03/16 07:14:15;;;;;;;18.50;12.80;;;;;;;6.24;100.00;100702.92;109039;1253;59487;-57
2024/03/16 07:16:42;;;;;;;15.10;11.40;;;;;;;6.30;100.00;100700.68;109111;1253;73463;-58
2024/03/16 07:19:10;;;;;;;11.70;8.60;;;;;;;6.36;100.00;100703.80;109299;1252;66967;-58
2024/03/16 07:21:37;;;;;;;10.10;8.80;;;;;;;6.43;100.00;100707.42;108405;1254;71484;-57
2024/03/16 07:24:05;;;;;;;6.80;6.20;;;;;;;6.49;100.00;100706.25;106088;1256;62307;-57
2024/03/16 07:26:32;;;;;;;8.00;7.20;;;;;;;6.56;100.00;100704.36;106084;1256;61350;-57
2024/03/16 07:28:59;;;;;;;5.90;5.40;;;;;;;6.62;100.00;100709.42;106101;1259;75086;-58
2024/03/16 07:31:26;;;;;;;9.80;7.80;;;;;;;6.69;100.00;100710.55;106047;1256;67852;-58
2024/03/16 07:33:53;;;;;;;7.70;6.90;;;;;;;6.77;100.00;100712.74;106229;1257;72809;-58
2024/03/16 07:36:21;;;;;;;8.20;7.40;;;;;;;6.85;100.00;100712.78;106092;1253;63233;-58
2024/03/16 07:38:48;;;;;;;5.60;5.10;;;;;;;6.92;100.00;100706.92;106336;1257;61280;-59
2024/03/16 07:41:15;;;;;;;7.20;6.50;;;;;;;6.99;100.00;100711.44;106175;1256;74716;-57
2024/03/16 07:43:44;;;;;;;6.80;6.20;;;;;;;7.09;100.00;100710.01;106069;1257;67272;-58
2024/03/16 07:46:11;;;;;;;6.50;5.80;;;;;;;7.21;100.00;100708.70;105930;1256;73227;-58
2024/03/16 07:48:38;;;;;;;6.90;6.00;;;;;;;7.36;100.00;100711.98;106233;1253;60947;-59
2024/03/16 07:51:05;;;;;;;6.80;5.90;;;;;;;7.47;100.00;100708.54;106153;1259;61247;-57
2024/03/16 07:53:33;;;;;;;6.10;5.60;;;;;;;7.56;100.00;100708.52;106172;1257;73963;-57
2024/03/16 07:56:00;;;;;;;7.50;6.60;;;;;;;7.65;100.00;100714.23;106290;1256;65781;-56
2024/03/16 07:58:28;;;;;;;6.40;5.70;;;;;;;7.73;100.00;100716.56;106212;1254;71056;-56
2024/03/16 08:00:55;;;;;;;7.60;6.50;;;;;;;7.80;100.00;100710.52;106292;1256;61212;-56
2024/03/16 08:03:22;;;;;;;7.40;5.90;;;;;;;7.85;100.00;100716.30;106301;1254;60948;-57
2024/03/16 08:05:49;;;;;;;6.20;5.60;;;;;;;7.88;100.00;100714.63;106269;1254;74784;-57
2024/03/16 08:08:17;;;;;;;8.00;7.20;;;;;;;7.90;100.00;100715.29;106294;1257;66961;-58
2024/03/16 08:10:44;;;;;;;9.10;8.10;;;;;;;7.95;100.00;100711.79;106349;1256;71521;-57
2024/03/16 08:13:11;;;;;;;9.60;8.70;;;;;;;8.02;100.00;100713.77;106243;1257;62037;-57
2024/03/16 08:15:39;;;;;;;9.60;8.60;;;;;;;8.07;100.00;100714.92;106333;1253;61685;-58
2024/03/16 08:18:06;;;;;;;9.70;7.50;;;;;;;8.11;100.00;100714.63;106116;1256;74204;-56
2024/03/16 08:20:34;;;;;;;9.70;8.50;;;;;;;8.16;100.00;100717.75;106001;1260;66073;-58
2024/03/16 08:23:01;;;;;;;9.80;8.70;;;;;;;8.16;100.00;100722.93;105990;1251;71397;-57
2024/03/16 08:25:29;;;;;;;10.80;9.00;;;;;;;8.16;100.00;100721.69;106034;1257;61452;-57
2024/03/16 08:27:58;;;;;;;8.00;7.20;;;;;;;8.17;100.00;100723.27;106118;1256;61314;-58
2024/03/16 08:30:25;;;;;;;8.70;7.50;;;;;;;8.18;100.00;100723.41;106360;1256;73356;-57
2024/03/16 08:32:53;;;;;;;9.10;7.50;;;;;;;8.19;100.00;100727.67;106055;1257;67341;-57
2024/03/16 08:35:21;;;;;;;9.30;8.40;;;;;;;8.20;100.00;100724.44;106225;1251;73191;-58
2024/03/16 08:37:48;;;;;;;10.20;7.60;;;;;;;8.22;100.00;100726.73;106555;1264;62721;-59
2024/03/16 08:40:16;;;;;;;7.00;6.20;;;;;;;8.22;100.00;100729.41;106172;1256;61234;-56
2024/03/16 08:42:43;;;;;;;7.20;6.50;;;;;;;8.21;100.00;100728.19;106264;1258;74693;-57
2024/03/16 08:45:11;;;;;;;7.50;6.70;;;;;;;8.18;100.00;100728.59;106317;1255;66928;-58
2024/03/16 08:47:41;;;;;;;7.40;6.50;;;;;;;8.19;100.00;100726.25;106258;1256;71814;-57
2024/03/16 08:50:09;;;;;;;8.90;7.30;;;;;;;8.21;100.00;100728.53;106189;1251;61271;-58
2024/03/16 08:52:36;;;;;;;8.90;7.10;;;;;;;8.23;100.00;100728.85;106039;1269;60595;-57
2024/03/16 08:55:05;;;;;;;10.10;6.20;;;;;;;8.26;100.00;100728.04;105999;1258;75138;-58
2024/03/16 08:57:33;;;;;;;7.20;5.90;;;;;;;8.32;100.00;100728.14;106117;1253;66003;-55
2024/03/16 09:00:00;;;;;;;8.00;7.20;;;;;;;8.37;100.00;100726.77;106145;1259;70351;-56
2024/03/16 09:02:28;;;;;;;7.80;6.90;;;;;;;8.41;100.00;100728.12;106063;1256;62495;-57
2024/03/16 09:04:56;;;;;;;10.70;7.50;;;;;;;8.42;100.00;100728.95;106136;1256;61227;-57
2024/03/16 09:10:10;;;;;;;7.00;6.40;;;;;;;8.49;100.00;100733.27;102600;1301;601637;-59
2024/03/16 09:12:38;;;;;;;6.30;5.10;;;;;;;8.50;100.00;100745.77;105541;1267;60735;-57
2024/03/16 09:15:06;;;;;;;8.50;6.10;;;;;;;8.53;100.00;100743.19;105633;1272;59733;-59
2024/03/16 09:17:33;;;;;;;6.50;5.40;;;;;;;8.52;100.00;100741.05;105231;1267;71869;-58
2024/03/16 09:20:07;;;;;;;6.80;6.00;;;;;;;8.52;100.00;100739.44;105352;1267;67334;-57
2024/03/16 09:22:36;;;;;;;8.20;6.70;;;;;;;8.51;100.00;100736.79;105523;1267;72782;-58
2024/03/16 09:25:08;;;;;;;8.80;8.00;;;;;;;8.49;100.00;100736.14;105546;1264;60232;-58
2024/03/16 09:27:36;;;;;;;7.20;6.60;;;;;;;8.46;100.00;100739.78;105559;1269;64317;-58
2024/03/16 09:30:08;;;;;;;6.80;6.10;;;;;;;8.43;100.00;100736.81;105523;1264;70850;-58
2024/03/16 09:32:36;;;;;;;6.00;5.50;;;;;;;8.44;100.00;100740.73;108638;1263;67098;-59
2024/03/16 09:35:06;;;;;;;5.10;4.60;;;;;;;8.47;100.00;100739.41;108525;1261;73177;-59
2024/03/16 09:37:33;;;;;;;5.70;5.20;;;;;;;8.50;100.00;100740.41;108506;1261;62292;-56
2024/03/16 09:40:01;;;;;;;5.50;4.70;;;;;;;8.52;100.00;100740.53;108556;1263;59127;-58
2024/03/16 09:42:28;;;;;;;6.80;6.20;;;;;;;8.53;100.00;100741.21;108198;1264;72835;-58
2024/03/16 09:44:57;;;;;;;5.70;5.10;;;;;;;8.54;100.00;100739.94;105706;1265;65816;-57
2024/03/16 09:47:24;;;;;;;9.30;8.00;;;;;;;8.55;100.00;100740.09;108607;1260;74642;-56
2024/03/16 09:49:51;;;;;;;12.30;9.80;;;;;;;8.56;100.00;100742.23;107850;1263;59619;-57
2024/03/16 09:52:19;;;;;;;10.80;7.80;;;;;;;8.57;100.00;100741.31;105542;1265;60494;-57
2024/03/16 09:54:46;;;;;;;8.50;7.70;;;;;;;8.57;100.00;100742.94;105439;1264;73319;-58
2024/03/16 09:57:14;;;;;;;7.80;6.30;;;;;;;8.57;100.00;100740.23;105555;1266;65711;-58
2024/03/16 09:59:48;;;;;;;8.30;6.80;;;;;;;8.59;100.00;100736.06;105558;1263;71457;-58
2024/03/16 10:02:19;;;;;;;5.50;5.00;;;;;;;8.61;100.00;100739.58;108752;1260;59923;-58
2024/03/16 10:04:50;;;;;;;6.60;5.50;;;;;;;8.64;100.00;100738.98;108560;1261;59267;-59
2024/03/16 10:07:17;;;;;;;7.40;6.30;;;;;;;8.68;100.00;100738.34;108888;1257;74083;-59
2024/03/16 10:09:55;;;;;;;7.40;5.30;;;;;;;8.70;100.00;100736.30;106483;1261;68317;-59
2024/03/16 10:12:23;;;;;;;7.80;6.90;;;;;;;8.72;100.00;100737.69;108847;1257;73082;-57
2024/03/16 10:15:09;;;;;;;5.80;4.60;;;;;;;8.74;100.00;100737.48;108856;1256;60115;-58
2024/03/16 10:17:40;;;;;;;4.70;4.30;;;;;;;8.74;100.00;100739.45;109010;1257;58818;-59
2024/03/16 10:20:18;;;;;;;6.70;6.00;;;;;;;8.74;100.00;100737.67;106990;1256;72042;-59
2024/03/16 10:22:46;;;;;;;6.10;5.50;;;;;;;8.75;100.00;100739.45;107297;1260;65928;-58
2024/03/16 10:25:15;;;;;;;5.80;5.20;;;;;;;8.76;100.00;100740.84;105967;1260;72562;-59
2024/03/16 10:27:44;;;;;;;6.30;5.50;;;;;;;8.80;100.00;100741.80;106098;1256;60463;-59
2024/03/16 10:30:13;;;;;;;5.50;5.00;;;;;;;8.83;100.00;100742.81;107213;1260;60542;-59
2024/03/16 10:32:46;;;;;;;7.30;5.50;;;;;;;8.85;100.00;100743.81;106255;1257;72889;-59
2024/03/16 10:35:16;;;;;;;7.60;5.60;;;;;;;8.89;100.00;100741.04;106600;1258;65494;-59
2024/03/16 10:37:46;;;;;;;7.70;6.00;;;;;;;8.89;100.00;100739.41;106013;1273;71433;-60
2024/03/16 10:40:19;;;;;;;7.60;6.90;;;;;;;8.88;100.00;100741.95;105929;1258;60422;-59
2024/03/16 10:42:47;;;;;;;8.90;6.20;;;;;;;8.85;100.00;100741.48;106110;1257;61359;-59
2024/03/16 10:45:16;;;;;;;6.30;5.70;;;;;;;8.83;100.00;100739.77;106013;1260;73951;-59
2024/03/16 10:47:44;;;;;;;7.60;6.30;;;;;;;8.82;100.00;100739.62;105942;1261;67013;-59
2024/03/16 10:50:11;;;;;;;7.90;5.90;;;;;;;8.78;100.00;100743.83;105893;1263;72927;-59
2024/03/16 10:52:43;;;;;;;7.10;5.70;;;;;;;8.73;100.00;100741.08;106055;1257;61734;-55
2024/03/16 10:55:11;;;;;;;6.90;5.90;;;;;;;8.71;100.00;100744.35;106321;1260;60604;-57
2024/03/16 10:57:38;;;;;;;5.80;5.00;;;;;;;8.70;100.00;100738.45;105996;1260;73676;-57
2024/03/16 11:00:15;;;;;;;7.40;5.90;;;;;;;8.70;100.00;100742.04;106031;1259;65886;-56
2024/03/16 11:03:12;;;;;;;6.50;5.90;;;;;;;8.70;100.00;100736.50;106098;1260;72768;-56
2024/03/16 11:05:45;;;;;;;7.80;5.60;;;;;;;8.70;100.00;100737.21;106189;1257;60613;-56
2024/03/16 11:08:12;;;;;;;8.70;7.10;;;;;;;8.71;100.00;100733.61;106305;1259;62574;-56
2024/03/16 11:10:41;;;;;;;8.60;6.20;;;;;;;8.70;100.00;100734.35;106128;1257;72627;-56
2024/03/16 11:13:17;;;;;;;10.00;7.10;;;;;;;8.67;100.00;100732.81;106263;1254;65444;-56